Аэропорт: Чертовицкое. Воронеж

ICAO: UUOO

METAR:
2021-04-21 21:00:00
UUOO 212100Z 20004MPS 9999 BKN041 07/05 Q1015 R12/190060 NOSIG RMK QFE747
METAR:
2021-04-21 20:00:00
TAF UUOO 212000Z 2121/2206 22003MPS 6000 BKN020 TEMPO 2122/2204 2600 BR